createdAt,value
2022-07-27T00:01:58.644Z,99.90
2022-07-27T00:04:26.106Z,99.90
2022-07-27T00:06:54.511Z,99.90
2022-07-27T00:09:22.362Z,99.90
2022-07-27T00:11:50.053Z,99.90
2022-07-27T00:14:17.503Z,99.90
2022-07-27T00:16:44.964Z,99.90
2022-07-27T00:19:12.765Z,99.90
2022-07-27T00:21:44.649Z,99.90
2022-07-27T00:24:13.712Z,99.90
2022-07-27T00:26:41.292Z,99.90
2022-07-27T00:29:09.141Z,99.90
2022-07-27T00:31:36.824Z,99.90
2022-07-27T00:34:04.298Z,99.90
2022-07-27T00:36:31.598Z,99.90
2022-07-27T00:38:58.886Z,99.90
2022-07-27T00:41:26.271Z,99.90
2022-07-27T00:43:58.525Z,99.90
2022-07-27T00:46:27.631Z,99.90
2022-07-27T00:48:55.126Z,99.90
2022-07-27T00:51:23.235Z,99.90
2022-07-27T00:53:52.636Z,99.90
2022-07-27T00:56:20.514Z,99.90
2022-07-27T00:58:51.508Z,99.90
2022-07-27T01:01:19.591Z,99.90
2022-07-27T01:03:47.937Z,99.90
2022-07-27T01:06:16.198Z,99.90
2022-07-27T01:08:43.861Z,99.90
2022-07-27T01:11:12.074Z,99.90
2022-07-27T01:13:39.539Z,99.90
2022-07-27T01:16:07.589Z,99.90
2022-07-27T01:18:38.194Z,99.90
2022-07-27T01:21:09.395Z,99.90
2022-07-27T01:23:36.837Z,99.90
2022-07-27T01:26:05.613Z,99.90
2022-07-27T01:28:33.026Z,99.90
2022-07-27T01:31:00.534Z,99.90
2022-07-27T01:33:28.022Z,99.90
2022-07-27T01:35:57.312Z,99.90
2022-07-27T01:38:25.135Z,99.90
2022-07-27T01:40:53.902Z,99.90
2022-07-27T01:43:22.234Z,99.90
2022-07-27T01:45:49.980Z,99.90
2022-07-27T01:48:17.539Z,99.90
2022-07-27T01:50:47.608Z,99.90
2022-07-27T01:53:15.198Z,99.90
2022-07-27T01:55:42.528Z,99.90
2022-07-27T01:58:10.230Z,99.90
2022-07-27T02:00:38.108Z,99.90
2022-07-27T02:03:07.472Z,99.90
2022-07-27T02:05:35.650Z,99.90
2022-07-27T02:08:04.551Z,99.90
2022-07-27T02:10:32.277Z,99.90
2022-07-27T02:13:00.109Z,99.90
2022-07-27T02:15:42.922Z,99.90
2022-07-27T02:18:26.684Z,99.90
2022-07-27T02:20:59.329Z,99.90
2022-07-27T02:23:26.887Z,99.90
2022-07-27T02:25:54.312Z,99.90
2022-07-27T02:28:21.994Z,99.90
2022-07-27T02:30:49.380Z,99.90
2022-07-27T02:33:17.211Z,99.90
2022-07-27T02:35:44.738Z,99.90
2022-07-27T02:38:12.117Z,99.90
2022-07-27T02:40:39.544Z,99.90
2022-07-27T02:43:06.894Z,99.90
2022-07-27T02:45:34.214Z,99.90
2022-07-27T02:48:01.587Z,99.90
2022-07-27T02:50:28.938Z,99.90
2022-07-27T02:52:56.338Z,99.90
2022-07-27T02:55:24.357Z,99.90
2022-07-27T02:57:51.768Z,99.90
2022-07-27T03:00:19.358Z,99.90
2022-07-27T03:02:50.228Z,99.90
2022-07-27T03:05:17.759Z,99.90
2022-07-27T03:07:45.351Z,99.90
2022-07-27T03:10:12.704Z,99.90
2022-07-27T03:12:40.295Z,99.90
2022-07-27T03:15:08.210Z,99.90
2022-07-27T03:17:35.606Z,99.90
2022-07-27T03:20:03.209Z,99.90
2022-07-27T03:22:32.598Z,99.90
2022-07-27T03:25:00.787Z,99.90
2022-07-27T03:27:29.121Z,99.90
2022-07-27T03:29:57.271Z,99.90
2022-07-27T03:32:24.843Z,99.90
2022-07-27T03:34:52.235Z,99.90
2022-07-27T03:37:20.071Z,99.90
2022-07-27T03:39:47.439Z,99.90
2022-07-27T03:42:14.843Z,99.90
2022-07-27T03:44:42.309Z,99.90
2022-07-27T03:47:09.788Z,99.90
2022-07-27T03:50:09.597Z,99.90
2022-07-27T03:52:36.946Z,99.90
2022-07-27T03:55:04.727Z,99.90
2022-07-27T03:57:32.091Z,99.90
2022-07-27T03:59:59.584Z,99.90
2022-07-27T04:02:26.955Z,99.90
2022-07-27T04:04:54.412Z,99.90
2022-07-27T04:07:21.722Z,99.90
2022-07-27T04:09:49.048Z,99.90
2022-07-27T04:12:17.644Z,99.90
2022-07-27T04:14:47.487Z,99.90
2022-07-27T04:17:56.075Z,99.90
2022-07-27T04:20:02.207Z,99.90
2022-07-27T04:22:29.694Z,99.90
2022-07-27T04:24:57.180Z,99.90
2022-07-27T04:27:25.966Z,99.90
2022-07-27T04:29:53.398Z,99.90
2022-07-27T04:32:20.817Z,99.90
2022-07-27T04:34:48.280Z,99.90
2022-07-27T04:37:15.817Z,99.90
2022-07-27T04:39:43.254Z,99.90
2022-07-27T04:42:10.584Z,99.90
2022-07-27T04:44:38.289Z,99.90
2022-07-27T04:47:05.709Z,99.90
2022-07-27T04:49:33.071Z,99.90
2022-07-27T04:52:00.411Z,99.90
2022-07-27T04:54:27.821Z,99.90
2022-07-27T04:56:55.336Z,99.90
2022-07-27T04:59:22.729Z,99.90
2022-07-27T05:01:50.210Z,99.90
2022-07-27T05:04:17.659Z,99.90
2022-07-27T05:06:45.007Z,99.90
2022-07-27T05:09:12.980Z,99.90
2022-07-27T05:11:40.616Z,99.90
2022-07-27T05:14:21.292Z,99.90
2022-07-27T05:16:50.074Z,99.90
2022-07-27T05:19:17.542Z,99.90
2022-07-27T05:21:44.999Z,99.90
2022-07-27T05:24:12.437Z,99.90
2022-07-27T05:26:39.792Z,99.90
2022-07-27T05:29:07.176Z,99.90
2022-07-27T05:31:34.715Z,99.90
2022-07-27T05:34:02.102Z,99.90
2022-07-27T05:36:29.479Z,99.90
2022-07-27T05:38:56.888Z,99.90
2022-07-27T05:41:25.811Z,99.90
2022-07-27T05:43:56.848Z,99.90
2022-07-27T05:46:25.604Z,99.90
2022-07-27T05:48:54.855Z,99.90
2022-07-27T05:51:22.285Z,99.90
2022-07-27T05:53:49.710Z,99.90
2022-07-27T05:56:17.014Z,99.90
2022-07-27T05:58:44.443Z,99.90
2022-07-27T06:01:11.831Z,99.90
2022-07-27T06:03:39.319Z,99.90
2022-07-27T06:06:25.252Z,99.90
2022-07-27T06:08:54.031Z,99.90
2022-07-27T06:11:21.683Z,99.90
2022-07-27T06:13:50.644Z,99.90
2022-07-27T06:16:18.930Z,98.70
2022-07-27T06:18:46.349Z,98.00
2022-07-27T06:21:13.809Z,97.40
2022-07-27T06:23:41.257Z,95.90
2022-07-27T06:26:09.348Z,95.40
2022-07-27T06:28:36.730Z,95.00
2022-07-27T06:31:04.117Z,94.30
2022-07-27T06:33:34.261Z,94.50
2022-07-27T06:36:02.568Z,93.40
2022-07-27T06:38:30.110Z,92.70
2022-07-27T06:40:57.939Z,91.50
2022-07-27T06:43:27.652Z,90.80
2022-07-27T06:45:55.218Z,90.40
2022-07-27T06:48:22.793Z,89.10
2022-07-27T06:50:51.516Z,86.80
2022-07-27T06:53:21.313Z,83.80
2022-07-27T06:55:49.993Z,81.60
2022-07-27T06:58:18.122Z,78.00
2022-07-27T07:00:45.997Z,78.30
2022-07-27T07:03:13.435Z,78.30
2022-07-27T07:05:47.101Z,76.20
2022-07-27T07:08:14.910Z,75.50
2022-07-27T07:10:45.869Z,73.90
2022-07-27T07:13:13.800Z,72.70
2022-07-27T07:15:43.219Z,69.80
2022-07-27T07:18:12.417Z,68.80
2022-07-27T07:20:40.431Z,68.60
2022-07-27T07:23:08.367Z,70.30
2022-07-27T07:25:36.670Z,68.40
2022-07-27T07:28:05.651Z,69.50
2022-07-27T07:30:33.970Z,67.00
2022-07-27T07:33:02.349Z,66.90
2022-07-27T07:35:29.976Z,69.30
2022-07-27T07:37:57.322Z,72.90
2022-07-27T07:40:42.553Z,76.60
2022-07-27T07:43:12.712Z,78.90
2022-07-27T07:45:50.860Z,74.50
2022-07-27T07:48:21.295Z,78.40
2022-07-27T07:50:53.279Z,75.40
2022-07-27T07:53:23.570Z,79.60
2022-07-27T07:55:52.848Z,79.20
2022-07-27T07:58:20.901Z,76.20
2022-07-27T08:00:48.490Z,70.60
2022-07-27T08:03:16.382Z,67.20
2022-07-27T08:05:44.157Z,64.10
2022-07-27T08:08:11.586Z,61.50
2022-07-27T08:10:39.000Z,60.40
2022-07-27T08:13:06.673Z,59.40
2022-07-27T08:15:35.757Z,57.90
2022-07-27T08:18:06.892Z,57.70
2022-07-27T08:20:35.362Z,57.20
2022-07-27T08:23:03.626Z,57.20
2022-07-27T08:25:31.718Z,58.80
2022-07-27T08:27:59.370Z,57.50
2022-07-27T08:30:27.275Z,60.90
2022-07-27T08:32:59.911Z,63.40
2022-07-27T08:35:28.430Z,64.30
2022-07-27T08:37:57.150Z,59.60
2022-07-27T08:40:39.798Z,58.90
2022-07-27T08:43:09.411Z,57.70
2022-07-27T08:45:37.716Z,56.00
2022-07-27T08:48:06.388Z,58.50
2022-07-27T08:50:35.294Z,58.20
2022-07-27T08:53:08.960Z,58.70
2022-07-27T08:55:38.488Z,57.60
2022-07-27T08:58:07.530Z,56.80
2022-07-27T09:00:36.138Z,56.50
2022-07-27T09:03:04.093Z,56.50
2022-07-27T09:05:36.923Z,57.00
2022-07-27T09:08:16.947Z,56.90
2022-07-27T09:10:44.739Z,56.10
2022-07-27T09:13:24.012Z,55.00
2022-07-27T09:16:17.564Z,54.40
2022-07-27T09:18:46.824Z,54.00
2022-07-27T09:21:20.870Z,52.90
2022-07-27T09:23:52.892Z,51.20
2022-07-27T09:26:34.192Z,50.80
2022-07-27T09:29:12.858Z,49.90
2022-07-27T09:31:51.804Z,51.40
2022-07-27T09:34:31.145Z,52.30
2022-07-27T09:36:59.141Z,51.90
2022-07-27T09:39:28.075Z,51.70
2022-07-27T09:42:01.319Z,52.40
2022-07-27T09:44:44.053Z,50.40
2022-07-27T09:47:26.875Z,49.90
2022-07-27T09:50:18.311Z,50.40
2022-07-27T09:52:46.900Z,49.50
2022-07-27T09:55:14.503Z,47.60
2022-07-27T09:57:56.512Z,50.40
2022-07-27T10:00:25.740Z,55.70
2022-07-27T10:02:54.182Z,57.00
2022-07-27T10:05:22.782Z,59.50
2022-07-27T10:07:52.867Z,65.50
2022-07-27T10:10:21.691Z,68.90
2022-07-27T10:12:54.519Z,70.50
2022-07-27T10:15:24.437Z,72.00
2022-07-27T10:18:01.834Z,71.70
2022-07-27T10:20:31.775Z,73.50
2022-07-27T10:22:59.572Z,73.60
2022-07-27T10:25:32.473Z,74.20
2022-07-27T10:28:17.475Z,72.30
2022-07-27T10:30:48.253Z,68.90
2022-07-27T10:33:42.623Z,60.60
2022-07-27T10:36:39.356Z,62.00
2022-07-27T10:39:07.930Z,65.20
2022-07-27T10:41:41.731Z,65.70
2022-07-27T10:44:15.379Z,68.20
2022-07-27T10:47:00.573Z,69.70
2022-07-27T10:49:40.178Z,67.30
2022-07-27T10:52:43.584Z,67.70
2022-07-27T10:55:31.351Z,70.20
2022-07-27T10:58:04.223Z,66.90
2022-07-27T11:00:56.768Z,68.60
2022-07-27T11:03:30.789Z,69.10
2022-07-27T11:06:31.515Z,64.10
2022-07-27T11:09:46.446Z,67.60
2022-07-27T11:11:44.951Z,70.60
2022-07-27T11:14:12.933Z,70.00
2022-07-27T11:16:54.988Z,73.70
2022-07-27T11:19:24.615Z,71.80
2022-07-27T11:21:53.856Z,71.60
2022-07-27T11:24:23.458Z,73.60
2022-07-27T11:26:52.669Z,75.70
2022-07-27T11:29:22.725Z,76.40
2022-07-27T11:31:57.799Z,77.50
2022-07-27T11:34:31.402Z,79.90
2022-07-27T11:37:02.091Z,78.50
2022-07-27T11:42:23.420Z,80.60
2022-07-27T11:44:52.963Z,79.00
2022-07-27T11:47:23.943Z,74.00
2022-07-27T11:49:52.127Z,75.70
2022-07-27T11:52:19.694Z,76.80
2022-07-27T11:54:52.416Z,79.50
2022-07-27T11:57:20.614Z,79.10
2022-07-27T11:59:48.215Z,77.10
2022-07-27T12:02:18.019Z,74.00
2022-07-27T12:04:47.630Z,73.80
2022-07-27T12:07:19.781Z,73.60
2022-07-27T12:09:59.517Z,69.30
2022-07-27T12:12:31.506Z,74.00
2022-07-27T12:18:06.516Z,70.60
2022-07-27T12:20:35.583Z,70.30
2022-07-27T12:23:07.822Z,71.60
2022-07-27T12:25:36.302Z,69.60
2022-07-27T12:28:05.705Z,70.50
2022-07-27T12:30:42.094Z,68.50
2022-07-27T12:33:34.751Z,68.20
2022-07-27T12:36:04.185Z,67.70
2022-07-27T12:38:46.464Z,67.20
2022-07-27T12:41:29.571Z,67.90
2022-07-27T12:44:10.916Z,66.80
2022-07-27T12:46:55.656Z,68.50
2022-07-27T12:49:29.439Z,65.60
2022-07-27T12:52:09.524Z,65.30
2022-07-27T12:54:38.069Z,67.80
2022-07-27T12:57:05.465Z,68.30
2022-07-27T12:59:32.872Z,69.10
2022-07-27T13:02:00.632Z,66.40
2022-07-27T13:04:28.352Z,64.30
2022-07-27T13:06:55.790Z,68.50
2022-07-27T13:09:23.387Z,65.80
2022-07-27T13:11:50.848Z,66.40
2022-07-27T13:14:18.316Z,68.20
2022-07-27T13:16:45.738Z,66.80
2022-07-27T13:19:16.527Z,68.00
2022-07-27T13:21:44.535Z,67.70
2022-07-27T13:24:11.933Z,66.90
2022-07-27T13:26:40.987Z,65.10
2022-07-27T13:29:08.381Z,67.90
2022-07-27T13:31:37.027Z,69.20
2022-07-27T13:34:04.545Z,68.00
2022-07-27T13:36:31.984Z,68.80
2022-07-27T13:38:59.443Z,68.20
2022-07-27T13:41:26.879Z,69.30
2022-07-27T13:43:54.192Z,68.90
2022-07-27T13:46:21.689Z,70.50
2022-07-27T13:48:49.162Z,71.50
2022-07-27T13:51:16.526Z,72.80
2022-07-27T13:53:43.897Z,72.70
2022-07-27T13:56:11.227Z,73.10
2022-07-27T13:58:40.994Z,74.10
2022-07-27T14:01:08.721Z,72.90
2022-07-27T14:03:36.383Z,71.70
2022-07-27T14:06:03.863Z,70.40
2022-07-27T14:08:33.871Z,68.30
2022-07-27T14:11:02.219Z,68.10
2022-07-27T14:13:32.662Z,67.40
2022-07-27T14:16:01.030Z,68.50
2022-07-27T14:18:30.479Z,69.80
2022-07-27T14:21:00.374Z,72.60
2022-07-27T14:23:28.459Z,74.40
2022-07-27T14:25:57.962Z,75.50
2022-07-27T14:28:26.063Z,76.80
2022-07-27T14:30:53.823Z,78.40
2022-07-27T14:33:22.469Z,77.70
2022-07-27T14:35:50.523Z,78.30
2022-07-27T14:38:28.377Z,78.20
2022-07-27T14:41:00.599Z,79.00
2022-07-27T14:43:29.107Z,77.40
2022-07-27T14:45:57.015Z,78.20
2022-07-27T14:48:42.164Z,77.00
2022-07-27T14:51:12.125Z,76.60
2022-07-27T14:53:39.558Z,77.60
2022-07-27T14:56:06.946Z,76.50
2022-07-27T14:58:34.359Z,74.10
2022-07-27T15:01:02.034Z,72.70
2022-07-27T15:03:29.431Z,69.80
2022-07-27T15:05:57.225Z,69.50
2022-07-27T15:08:24.591Z,70.70
2022-07-27T15:10:51.955Z,71.50
2022-07-27T15:13:19.389Z,73.30
2022-07-27T15:15:52.516Z,74.50
2022-07-27T15:18:21.027Z,76.90
2022-07-27T15:20:48.522Z,77.80
2022-07-27T15:23:16.316Z,77.30
2022-07-27T15:25:43.664Z,78.20
2022-07-27T15:28:11.929Z,78.00
2022-07-27T15:30:39.367Z,78.40
2022-07-27T15:33:07.419Z,80.20
2022-07-27T15:35:34.986Z,74.60
2022-07-27T15:38:02.555Z,72.50
2022-07-27T15:40:40.081Z,71.30
2022-07-27T15:43:13.675Z,70.30
2022-07-27T15:45:43.077Z,69.10
2022-07-27T15:48:12.225Z,66.90
2022-07-27T15:50:41.883Z,69.70
2022-07-27T15:53:09.941Z,69.70
2022-07-27T15:55:37.839Z,69.90
2022-07-27T15:58:06.576Z,71.20
2022-07-27T16:00:40.519Z,72.70
2022-07-27T16:03:10.526Z,71.70
2022-07-27T16:05:39.361Z,71.60
2022-07-27T16:08:09.623Z,73.80
2022-07-27T16:10:41.664Z,72.70
2022-07-27T16:13:10.883Z,73.40
2022-07-27T16:15:56.748Z,73.80
2022-07-27T16:18:24.243Z,74.50
2022-07-27T16:20:52.426Z,75.50
2022-07-27T16:23:21.653Z,75.80
2022-07-27T16:26:04.027Z,76.20
2022-07-27T16:28:34.856Z,77.30
2022-07-27T16:31:02.888Z,76.00
2022-07-27T16:33:30.565Z,75.70
2022-07-27T16:35:58.306Z,75.20
2022-07-27T16:38:25.775Z,75.60
2022-07-27T16:40:53.196Z,73.20
2022-07-27T16:43:20.585Z,73.20
2022-07-27T16:45:47.970Z,71.70
2022-07-27T16:48:15.341Z,72.40
2022-07-27T16:50:42.671Z,70.50
2022-07-27T16:53:10.634Z,70.60
2022-07-27T16:55:37.991Z,70.60
2022-07-27T16:58:05.468Z,71.90
2022-07-27T17:00:38.191Z,71.90
2022-07-27T17:03:10.087Z,73.50
2022-07-27T17:05:37.599Z,73.20
2022-07-27T17:08:06.075Z,73.80
2022-07-27T17:10:33.459Z,74.20
2022-07-27T17:13:01.633Z,74.00
2022-07-27T17:15:29.028Z,74.90
2022-07-27T17:17:56.472Z,75.80
2022-07-27T17:20:28.106Z,76.30
2022-07-27T17:23:04.477Z,76.40
2022-07-27T17:25:31.855Z,76.10
2022-07-27T17:27:59.215Z,76.30
2022-07-27T17:30:26.544Z,76.80
2022-07-27T17:32:54.117Z,77.80
2022-07-27T17:35:21.504Z,76.60
2022-07-27T17:38:05.745Z,76.90
2022-07-27T17:40:35.527Z,77.80
2022-07-27T17:43:03.029Z,78.00
2022-07-27T17:45:31.274Z,78.40
2022-07-27T17:47:58.666Z,79.30
2022-07-27T17:50:26.288Z,79.50
2022-07-27T17:52:56.378Z,80.70
2022-07-27T17:55:23.832Z,82.00
2022-07-27T17:57:51.318Z,82.30
2022-07-27T18:00:18.795Z,83.20
2022-07-27T18:02:46.513Z,83.40
2022-07-27T18:05:14.490Z,83.80
2022-07-27T18:07:41.782Z,83.80
2022-07-27T18:10:09.633Z,84.10
2022-07-27T18:12:37.275Z,85.70
2022-07-27T18:15:23.497Z,85.50
2022-07-27T18:17:50.881Z,86.20
2022-07-27T18:20:18.258Z,86.40
2022-07-27T18:22:45.609Z,86.90
2022-07-27T18:25:13.206Z,86.90
2022-07-27T18:27:40.865Z,87.40
2022-07-27T18:30:08.792Z,86.30
2022-07-27T18:32:36.903Z,85.90
2022-07-27T18:35:05.408Z,86.50
2022-07-27T18:37:32.741Z,87.40
2022-07-27T18:40:00.688Z,87.70
2022-07-27T18:42:28.044Z,88.30
2022-07-27T18:44:55.430Z,89.50
2022-07-27T18:47:22.956Z,90.30
2022-07-27T18:49:50.289Z,90.70
2022-07-27T18:52:17.787Z,91.10
2022-07-27T18:54:45.127Z,91.30
2022-07-27T18:57:12.500Z,91.80
2022-07-27T18:59:40.858Z,92.40
2022-07-27T19:02:09.002Z,92.60
2022-07-27T19:04:36.686Z,93.40
2022-07-27T19:07:06.390Z,94.10
2022-07-27T19:09:34.512Z,94.60
2022-07-27T19:12:05.994Z,95.10
2022-07-27T19:14:37.264Z,96.00
2022-07-27T19:17:05.508Z,96.70
2022-07-27T19:19:32.940Z,97.30
2022-07-27T19:22:00.404Z,97.80
2022-07-27T19:24:28.105Z,98.40
2022-07-27T19:26:55.536Z,98.90
2022-07-27T19:29:23.029Z,99.60
2022-07-27T19:31:50.562Z,99.90
2022-07-27T19:34:18.434Z,99.90
2022-07-27T19:36:46.066Z,99.90
2022-07-27T19:39:13.942Z,99.90
2022-07-27T19:41:41.926Z,99.90
2022-07-27T19:44:09.808Z,99.90
2022-07-27T19:46:37.885Z,99.90
2022-07-27T19:49:05.360Z,99.90
2022-07-27T19:51:32.805Z,99.90
2022-07-27T19:54:00.354Z,99.90
2022-07-27T19:56:27.888Z,99.90
2022-07-27T19:58:55.231Z,99.90
2022-07-27T20:01:22.769Z,99.90
2022-07-27T20:03:54.524Z,99.90
2022-07-27T20:06:23.983Z,99.90
2022-07-27T20:08:53.892Z,99.90
2022-07-27T20:11:21.279Z,99.90
2022-07-27T20:13:48.649Z,99.90
2022-07-27T20:16:17.709Z,99.90
2022-07-27T20:18:45.269Z,99.90
2022-07-27T20:21:20.115Z,99.90
2022-07-27T20:23:52.615Z,99.90
2022-07-27T20:26:20.685Z,99.90
2022-07-27T20:28:49.784Z,99.90
2022-07-27T20:31:17.663Z,99.90
2022-07-27T20:33:45.122Z,99.90
2022-07-27T20:36:12.577Z,99.90
2022-07-27T20:38:39.975Z,99.90
2022-07-27T20:41:07.286Z,99.90
2022-07-27T20:43:34.794Z,99.90
2022-07-27T20:46:03.500Z,99.90
2022-07-27T20:48:31.149Z,99.90
2022-07-27T20:50:59.773Z,99.90
2022-07-27T20:53:27.183Z,99.90
2022-07-27T20:55:54.591Z,99.90
2022-07-27T20:58:22.089Z,99.90
2022-07-27T21:00:49.754Z,99.90
2022-07-27T21:03:17.195Z,99.90
2022-07-27T21:05:44.706Z,99.90
2022-07-27T21:08:12.072Z,99.90
2022-07-27T21:10:39.492Z,99.90
2022-07-27T21:13:06.927Z,99.90
2022-07-27T21:15:34.508Z,99.90
2022-07-27T21:18:02.462Z,99.90
2022-07-27T21:20:30.064Z,99.90
2022-07-27T21:23:15.719Z,99.90
2022-07-27T21:25:43.993Z,99.90
2022-07-27T21:28:16.865Z,99.90
2022-07-27T21:30:47.435Z,99.90
2022-07-27T21:33:15.281Z,99.90
2022-07-27T21:35:42.633Z,99.90
2022-07-27T21:38:10.078Z,99.90
2022-07-27T21:40:37.500Z,99.90
2022-07-27T21:43:04.829Z,99.90
2022-07-27T21:45:32.364Z,99.90
2022-07-27T21:47:59.784Z,99.90
2022-07-27T21:50:27.475Z,99.90
2022-07-27T21:52:55.219Z,99.90
2022-07-27T21:55:23.351Z,99.90
2022-07-27T21:57:51.352Z,99.90
2022-07-27T22:00:24.260Z,99.90
2022-07-27T22:02:52.631Z,99.90
2022-07-27T22:05:22.562Z,99.90
2022-07-27T22:07:51.234Z,99.90
2022-07-27T22:10:19.556Z,99.90
2022-07-27T22:12:47.067Z,99.90
2022-07-27T22:15:14.439Z,99.90
2022-07-27T22:17:50.142Z,99.90
2022-07-27T22:20:19.305Z,99.90
2022-07-27T22:22:47.297Z,99.90
2022-07-27T22:25:14.907Z,99.90
2022-07-27T22:27:42.352Z,99.90
2022-07-27T22:30:10.288Z,99.90
2022-07-27T22:32:37.732Z,99.90
2022-07-27T22:35:05.657Z,99.90
2022-07-27T22:37:33.083Z,99.90
2022-07-27T22:40:00.469Z,99.90
2022-07-27T22:42:28.202Z,99.90
2022-07-27T22:44:55.629Z,99.90
2022-07-27T22:47:23.381Z,99.90
2022-07-27T22:49:51.007Z,99.90
2022-07-27T22:52:18.655Z,99.90
2022-07-27T22:54:46.153Z,99.90
2022-07-27T22:57:13.523Z,99.90
2022-07-27T22:59:41.001Z,99.90
2022-07-27T23:02:08.831Z,99.90
2022-07-27T23:04:36.394Z,99.90
2022-07-27T23:07:03.983Z,99.90
2022-07-27T23:09:31.363Z,99.90
2022-07-27T23:11:58.776Z,99.90
2022-07-27T23:14:26.169Z,99.90
2022-07-27T23:16:53.634Z,99.90
2022-07-27T23:19:21.058Z,99.90
2022-07-27T23:21:49.190Z,99.90
2022-07-27T23:24:28.723Z,99.90
2022-07-27T23:26:56.892Z,99.90
2022-07-27T23:29:24.230Z,99.90
2022-07-27T23:31:51.810Z,99.90
2022-07-27T23:34:20.179Z,99.90
2022-07-27T23:36:47.466Z,99.90
2022-07-27T23:39:14.845Z,99.90
2022-07-27T23:41:45.316Z,99.90
2022-07-27T23:44:17.143Z,99.90
2022-07-27T23:46:44.739Z,99.90
2022-07-27T23:49:12.176Z,99.90
2022-07-27T23:51:39.550Z,99.90
2022-07-27T23:54:06.959Z,99.90
2022-07-27T23:56:34.332Z,99.90
2022-07-27T23:59:01.664Z,99.90
